This is the latest recevied weather packets stored in our database for station/object KE5YIM-13. If no packets are shown the sender has not sent any weather packets the latest 10 day(s).
| Time | Temp. | Humidity | Pressure | Rain* | Wind** | Luminosity | Snow |
|---|---|---|---|---|---|---|---|
| 1777394919 | 16.67° C | 47% | 1022.4 hPa | 0 mm | - | 828 W/m² | - |
| 1777394613 | 16.67° C | 47% | 1022.3 hPa | 0 mm | - | 672 W/m² | - |
| 1777394311 | 17.78° C | 45% | 1022.2 hPa | 0 mm | - | 719 W/m² | - |
| 1777394007 | 17.22° C | 46% | 1022.2 hPa | 0 mm | - | 792 W/m² | - |
| 1777393707 | 16.67° C | 48% | 1022.5 hPa | 0 mm | - | 814 W/m² | - |
| 1777393402 | 17.22° C | 45% | 1022.2 hPa | 0 mm | - | 769 W/m² | - |
| 1777393099 | 16.67° C | 47% | 1022.5 hPa | 0 mm | - | 719 W/m² | - |
| 1777392795 | 16.67° C | 46% | 1022.5 hPa | 0 mm | - | 698 W/m² | - |
| 1777392491 | 16.11° C | 50% | 1022.8 hPa | 0 mm | - | 684 W/m² | - |
| 1777392187 | 16.11° C | 48% | 1022.5 hPa | 0 mm | - | 560 W/m² | - |
| 1777391881 | 16.11° C | 48% | 1022.9 hPa | 0 mm | - | 735 W/m² | - |
| 1777391577 | 16.11° C | 46% | 1022.7 hPa | 0 mm | - | 636 W/m² | - |
| 1777391274 | 16.67° C | 45% | 1022.6 hPa | 0 mm | - | 718 W/m² | - |
| 1777390970 | 16.67° C | 46% | 1022.7 hPa | 0 mm | - | 731 W/m² | - |
| 1777390666 | 16.67° C | 46% | 1022.7 hPa | 0 mm | - | 733 W/m² | - |
| 1777390364 | 16.67° C | 48% | 1022.7 hPa | 0 mm | - | 751 W/m² | - |
| 1777390058 | 16.67° C | 46% | 1022.9 hPa | 0 mm | - | 763 W/m² | - |
| 1777389756 | 16.67° C | 46% | 1022.8 hPa | 0 mm | - | 747 W/m² | - |
| 1777389452 | 16.67° C | 48% | 1023 hPa | 0 mm | - | 745 W/m² | - |
| 1777389150 | 16.67° C | 45% | 1022.9 hPa | 0 mm | - | 731 W/m² | - |
| 1777388848 | 16.67° C | 47% | 1022.8 hPa | 0 mm | - | 677 W/m² | - |
| 1777388545 | 16.67° C | 49% | 1022.8 hPa | 0 mm | - | 701 W/m² | - |
| 1777388240 | 16.11° C | 49% | 1022.8 hPa | 0 mm | - | 687 W/m² | - |
| 1777387936 | 16.11° C | 51% | 1023.1 hPa | 0 mm | - | 670 W/m² | - |
| 1777387632 | 16.11° C | 52% | 1023 hPa | 0 mm | - | 588 W/m² | - |
* Rain latest hour (hover to see other rain measurements)
** Current wind speed in m/s (hover to see current wind gust speed)